createdAt,value
2019-05-28T00:00:58.541Z,23.49
2019-05-28T00:03:24.950Z,23.47
2019-05-28T00:05:51.457Z,23.46
2019-05-28T00:08:17.819Z,23.44
2019-05-28T00:10:44.206Z,23.45
2019-05-28T00:13:10.561Z,23.44
2019-05-28T00:15:37.002Z,23.43
2019-05-28T00:18:03.326Z,23.43
2019-05-28T00:20:29.695Z,23.43
2019-05-28T00:22:56.104Z,23.43
2019-05-28T00:25:25.075Z,23.42
2019-05-28T00:27:48.733Z,23.43
2019-05-28T00:30:20.558Z,23.43
2019-05-28T00:32:41.623Z,23.43
2019-05-28T00:37:52.169Z,23.43
2019-05-28T00:40:18.557Z,23.44
2019-05-28T00:42:44.938Z,23.42
2019-05-28T00:47:37.644Z,23.44
2019-05-28T00:50:04.091Z,23.40
2019-05-28T00:52:30.491Z,23.38
2019-05-28T00:54:56.787Z,23.42
2019-05-28T00:57:23.165Z,23.40
2019-05-28T00:59:49.504Z,23.39
2019-05-28T01:02:15.835Z,23.34
2019-05-28T01:04:42.195Z,23.37
2019-05-28T01:07:08.524Z,23.37
2019-05-28T01:09:34.854Z,23.35
2019-05-28T01:12:01.252Z,23.33
2019-05-28T01:14:27.607Z,23.31
2019-05-28T01:16:53.943Z,23.33
2019-05-28T01:19:20.279Z,23.33
2019-05-28T01:21:46.665Z,23.34
2019-05-28T01:24:13.014Z,23.33
2019-05-28T01:26:39.365Z,23.33
2019-05-28T01:29:05.701Z,23.33
2019-05-28T01:33:58.456Z,23.31
2019-05-28T01:36:24.726Z,23.30
2019-05-28T01:38:51.057Z,23.30
2019-05-28T01:41:17.449Z,23.29
2019-05-28T01:43:43.783Z,23.28
2019-05-28T01:46:10.191Z,23.28
2019-05-28T01:48:36.531Z,23.29
2019-05-28T01:51:02.878Z,23.27
2019-05-28T01:53:29.294Z,23.22
2019-05-28T01:55:55.659Z,23.23
2019-05-28T01:58:22.058Z,23.23
2019-05-28T02:00:48.343Z,23.21
2019-05-28T02:03:14.756Z,23.20
2019-05-28T02:05:41.093Z,23.19
2019-05-28T02:08:07.463Z,23.14
2019-05-28T02:10:33.841Z,23.11
2019-05-28T02:13:00.205Z,23.14
2019-05-28T02:15:26.561Z,23.14
2019-05-28T02:17:52.915Z,23.03
2019-05-28T02:20:19.245Z,23.04
2019-05-28T02:22:45.605Z,23.03
2019-05-28T02:25:11.935Z,23.07
2019-05-28T02:27:38.356Z,23.05
2019-05-28T02:30:04.779Z,22.97
2019-05-28T02:32:31.092Z,22.98
2019-05-28T02:34:57.434Z,22.99
2019-05-28T02:37:23.787Z,22.97
2019-05-28T02:39:50.147Z,22.95
2019-05-28T02:42:16.516Z,22.94
2019-05-28T02:44:42.921Z,22.96
2019-05-28T02:47:09.214Z,22.96
2019-05-28T02:49:35.610Z,22.91
2019-05-28T02:52:01.948Z,22.93
2019-05-28T02:56:54.695Z,22.98
2019-05-28T02:59:20.979Z,23.01
2019-05-28T03:01:47.311Z,22.99
2019-05-28T03:04:13.750Z,23.01
2019-05-28T03:06:40.066Z,23.06
2019-05-28T03:09:06.441Z,23.07
2019-05-28T03:11:32.800Z,23.08
2019-05-28T03:13:59.230Z,23.10
2019-05-28T03:16:25.528Z,23.13
2019-05-28T03:18:51.891Z,23.14
2019-05-28T03:21:18.226Z,23.22
2019-05-28T03:23:44.635Z,23.23
2019-05-28T03:26:11.088Z,23.22
2019-05-28T03:28:37.396Z,23.23
2019-05-28T03:31:03.731Z,23.25
2019-05-28T03:33:30.085Z,23.26
2019-05-28T03:35:56.474Z,23.27
2019-05-28T03:38:22.784Z,23.29
2019-05-28T03:40:49.131Z,23.33
2019-05-28T03:43:15.513Z,23.34
2019-05-28T03:45:41.963Z,23.34
2019-05-28T03:48:08.534Z,23.40
2019-05-28T03:50:34.827Z,23.43
2019-05-28T03:53:01.163Z,23.45
2019-05-28T03:55:27.511Z,23.50
2019-05-28T03:57:53.894Z,23.53
2019-05-28T04:03:05.526Z,23.67
2019-05-28T04:05:31.865Z,23.70
2019-05-28T04:07:58.223Z,23.76
2019-05-28T04:10:24.560Z,23.80
2019-05-28T04:12:50.905Z,23.83
2019-05-28T04:15:17.260Z,23.87
2019-05-28T04:17:43.599Z,23.95
2019-05-28T04:20:10.021Z,24.00
2019-05-28T04:22:36.311Z,23.97
2019-05-28T04:25:02.652Z,24.04
2019-05-28T04:27:28.986Z,24.08
2019-05-28T04:29:55.333Z,24.15
2019-05-28T04:32:21.677Z,24.17
2019-05-28T04:34:48.014Z,24.20
2019-05-28T04:37:14.351Z,24.26
2019-05-28T04:39:40.678Z,24.23
2019-05-28T04:42:07.021Z,24.21
2019-05-28T04:44:33.354Z,24.26
2019-05-28T04:46:59.746Z,24.31
2019-05-28T04:49:26.045Z,24.32
2019-05-28T04:51:52.461Z,24.32
2019-05-28T04:56:45.143Z,24.35
2019-05-28T04:59:11.514Z,24.42
2019-05-28T05:01:37.828Z,24.43
2019-05-28T05:04:04.234Z,24.44
2019-05-28T05:06:30.515Z,24.50
2019-05-28T05:08:56.866Z,24.57
2019-05-28T05:11:23.197Z,24.67
2019-05-28T05:13:49.565Z,24.64
2019-05-28T05:16:15.904Z,24.73
2019-05-28T05:18:42.235Z,24.76
2019-05-28T05:21:08.574Z,24.72
2019-05-28T05:23:34.920Z,24.71
2019-05-28T05:26:01.251Z,24.84
2019-05-28T05:28:27.589Z,24.82
2019-05-28T05:30:56.970Z,24.89
2019-05-28T05:33:23.310Z,24.91
2019-05-28T05:35:49.827Z,25.11
2019-05-28T05:38:16.162Z,25.11
2019-05-28T05:40:42.518Z,25.10
2019-05-28T05:43:08.881Z,25.19
2019-05-28T05:45:35.260Z,25.22
2019-05-28T05:48:01.624Z,25.24
2019-05-28T05:50:28.032Z,25.25
2019-05-28T05:55:20.662Z,25.41
2019-05-28T05:57:47.032Z,25.53
2019-05-28T06:00:13.364Z,25.46
2019-05-28T06:02:39.771Z,25.46
2019-05-28T06:07:32.536Z,25.58
2019-05-28T06:09:58.848Z,25.62
2019-05-28T06:12:25.177Z,25.69
2019-05-28T06:14:51.562Z,25.72
2019-05-28T06:17:17.878Z,25.72
2019-05-28T06:19:44.295Z,25.82
2019-05-28T06:22:10.704Z,25.88
2019-05-28T06:24:37.036Z,25.86
2019-05-28T06:27:03.369Z,25.76
2019-05-28T06:29:29.917Z,25.87
2019-05-28T06:31:56.317Z,25.88
2019-05-28T06:34:22.631Z,26.02
2019-05-28T06:36:48.965Z,26.06
2019-05-28T06:39:15.291Z,26.11
2019-05-28T06:41:41.664Z,26.14
2019-05-28T06:44:08.043Z,26.06
2019-05-28T06:46:34.394Z,26.26
2019-05-28T06:49:00.745Z,26.18
2019-05-28T06:51:27.088Z,26.27
2019-05-28T06:53:53.468Z,26.31
2019-05-28T06:56:19.851Z,26.46
2019-05-28T06:58:46.226Z,26.34
2019-05-28T07:01:12.718Z,26.38
2019-05-28T07:06:07.648Z,26.40
2019-05-28T07:08:31.733Z,26.43
2019-05-28T07:10:58.673Z,26.39
2019-05-28T07:13:24.537Z,26.43
2019-05-28T07:15:50.907Z,26.42
2019-05-28T07:18:17.264Z,26.42
2019-05-28T07:20:43.663Z,26.53
2019-05-28T07:23:10.104Z,26.49
2019-05-28T07:25:36.567Z,26.41
2019-05-28T07:28:10.773Z,26.60
2019-05-28T07:30:29.263Z,26.48
2019-05-28T07:32:55.633Z,26.48
2019-05-28T07:35:21.972Z,26.55
2019-05-28T07:37:48.329Z,26.59
2019-05-28T07:40:30.228Z,26.65
2019-05-28T07:42:41.174Z,26.51
2019-05-28T07:45:07.568Z,26.54
2019-05-28T07:47:33.854Z,26.71
2019-05-28T07:52:26.594Z,26.60
2019-05-28T07:54:52.897Z,26.69
2019-05-28T07:57:19.329Z,26.71
2019-05-28T07:59:45.666Z,26.67
2019-05-28T08:02:12.161Z,26.66
2019-05-28T08:04:47.171Z,26.75
2019-05-28T08:07:04.985Z,26.59
2019-05-28T08:09:31.358Z,26.67
2019-05-28T08:11:57.671Z,26.67
2019-05-28T08:14:24.034Z,26.57
2019-05-28T08:16:53.120Z,26.64
2019-05-28T08:19:16.809Z,26.67
2019-05-28T08:21:43.081Z,26.75
2019-05-28T08:24:12.063Z,26.65
2019-05-28T08:26:38.422Z,26.54
2019-05-28T08:29:04.911Z,26.54
2019-05-28T08:31:31.230Z,26.50
2019-05-28T08:33:58.029Z,26.54
2019-05-28T08:36:24.420Z,26.52
2019-05-28T08:38:50.799Z,26.48
2019-05-28T08:41:17.277Z,26.40
2019-05-28T08:43:43.608Z,26.30
2019-05-28T08:46:10.025Z,26.23
2019-05-28T08:48:36.396Z,26.28
2019-05-28T08:51:02.821Z,26.14
2019-05-28T08:53:29.227Z,26.24
2019-05-28T08:55:55.619Z,26.16
2019-05-28T08:58:21.940Z,26.11
2019-05-28T09:00:48.315Z,26.04
2019-05-28T09:03:14.645Z,26.09
2019-05-28T09:05:41.106Z,26.08
2019-05-28T09:08:07.544Z,25.99
2019-05-28T09:10:33.951Z,25.99
2019-05-28T09:15:26.771Z,25.96
2019-05-28T09:17:53.144Z,25.99
2019-05-28T09:20:19.482Z,25.93
2019-05-28T09:22:45.832Z,25.92
2019-05-28T09:25:12.368Z,25.77
2019-05-28T09:27:38.788Z,25.79
2019-05-28T09:30:05.109Z,25.96
2019-05-28T09:32:31.496Z,25.92
2019-05-28T09:35:01.611Z,25.84
2019-05-28T09:37:24.147Z,25.78
2019-05-28T09:39:50.708Z,25.78
2019-05-28T09:42:16.987Z,25.75
2019-05-28T09:44:43.403Z,25.74
2019-05-28T09:49:36.081Z,25.93
2019-05-28T09:52:02.416Z,25.93
2019-05-28T09:54:28.788Z,25.86
2019-05-28T09:56:55.164Z,25.89
2019-05-28T09:59:21.725Z,25.75
2019-05-28T10:01:48.120Z,25.88
2019-05-28T10:04:14.454Z,25.88
2019-05-28T10:06:41.743Z,25.78
2019-05-28T10:09:07.296Z,25.73
2019-05-28T10:11:33.648Z,25.96
2019-05-28T10:13:59.977Z,25.99
2019-05-28T10:16:28.718Z,25.95
2019-05-28T10:21:21.480Z,25.98
2019-05-28T10:23:49.809Z,25.94
2019-05-28T10:26:14.173Z,25.97
2019-05-28T10:28:40.517Z,26.03
2019-05-28T10:31:06.840Z,26.06
2019-05-28T10:33:33.202Z,26.13
2019-05-28T10:35:59.588Z,26.15
2019-05-28T10:38:25.954Z,26.22
2019-05-28T10:40:52.898Z,26.38
2019-05-28T10:43:19.244Z,26.35
2019-05-28T10:45:45.808Z,26.25
2019-05-28T10:48:11.960Z,26.19
2019-05-28T10:50:38.377Z,26.13
2019-05-28T10:53:04.857Z,26.10
2019-05-28T10:55:31.192Z,25.93
2019-05-28T10:57:57.564Z,25.94
2019-05-28T11:00:23.964Z,26.06
2019-05-28T11:02:50.306Z,25.95
2019-05-28T11:05:16.730Z,25.95
2019-05-28T11:07:43.047Z,26.01
2019-05-28T11:10:23.367Z,25.88
2019-05-28T11:12:35.897Z,25.76
2019-05-28T11:15:02.245Z,25.87
2019-05-28T11:17:28.588Z,25.76
2019-05-28T11:19:54.959Z,25.70
2019-05-28T11:22:21.290Z,25.86
2019-05-28T11:24:47.628Z,25.77
2019-05-28T11:27:14.031Z,25.71
2019-05-28T11:29:40.331Z,25.60
2019-05-28T11:32:06.708Z,25.65
2019-05-28T11:34:33.104Z,25.76
2019-05-28T11:37:08.743Z,25.69
2019-05-28T11:39:25.789Z,25.65
2019-05-28T11:44:18.477Z,25.76
2019-05-28T11:46:44.865Z,25.82
2019-05-28T11:49:11.243Z,25.67
2019-05-28T11:51:37.610Z,25.81
2019-05-28T11:54:03.995Z,25.85
2019-05-28T11:56:30.381Z,25.93
2019-05-28T11:58:56.732Z,25.92
2019-05-28T12:01:33.801Z,25.94
2019-05-28T12:03:49.448Z,25.89
2019-05-28T12:06:15.924Z,25.93
2019-05-28T12:08:42.328Z,25.87
2019-05-28T12:11:08.717Z,25.94
2019-05-28T12:13:35.098Z,25.96
2019-05-28T12:16:03.427Z,25.87
2019-05-28T12:18:27.821Z,25.94
2019-05-28T12:20:54.179Z,25.81
2019-05-28T12:23:20.542Z,25.82
2019-05-28T12:25:46.928Z,25.81
2019-05-28T12:28:13.280Z,25.98
2019-05-28T12:30:39.627Z,25.94
2019-05-28T12:33:06.079Z,25.87
2019-05-28T12:35:32.467Z,25.90
2019-05-28T12:37:58.785Z,25.87
2019-05-28T12:40:25.185Z,25.90
2019-05-28T12:42:51.513Z,25.93
2019-05-28T12:45:33.907Z,25.90
2019-05-28T12:47:44.601Z,25.90
2019-05-28T12:50:20.633Z,25.74
2019-05-28T12:55:04.400Z,26.00
2019-05-28T12:57:30.943Z,26.13
2019-05-28T12:59:57.316Z,25.88
2019-05-28T13:02:23.846Z,25.80
2019-05-28T13:04:50.419Z,25.92
2019-05-28T13:07:17.194Z,25.80
2019-05-28T13:09:43.805Z,25.96
2019-05-28T13:12:10.368Z,25.74
2019-05-28T13:14:36.739Z,25.71
2019-05-28T13:17:03.198Z,25.95
2019-05-28T13:19:29.665Z,25.68
2019-05-28T13:21:56.065Z,25.91
2019-05-28T13:24:22.404Z,25.76
2019-05-28T13:29:15.093Z,25.75
2019-05-28T13:31:41.444Z,25.62
2019-05-28T13:34:07.777Z,25.65
2019-05-28T13:36:34.221Z,25.73
2019-05-28T13:39:00.529Z,25.70
2019-05-28T13:41:26.985Z,25.72
2019-05-28T13:43:53.522Z,25.82
2019-05-28T13:46:19.788Z,25.76
2019-05-28T13:48:46.123Z,25.71
2019-05-28T13:51:12.512Z,25.65
2019-05-28T13:53:38.871Z,25.67
2019-05-28T13:56:05.335Z,25.74
2019-05-28T13:58:32.031Z,25.70
2019-05-28T14:00:58.558Z,25.78
2019-05-28T14:03:24.983Z,25.79
2019-05-28T14:05:51.318Z,25.74
2019-05-28T14:08:17.668Z,25.57
2019-05-28T14:10:43.961Z,25.69
2019-05-28T14:13:10.410Z,25.68
2019-05-28T14:15:36.833Z,25.70
2019-05-28T14:18:03.623Z,25.83
2019-05-28T14:20:29.568Z,25.77
2019-05-28T14:22:56.003Z,25.73
2019-05-28T14:27:48.737Z,25.72
2019-05-28T14:30:15.102Z,25.72
2019-05-28T14:32:41.463Z,25.91
2019-05-28T14:35:07.851Z,25.75
2019-05-28T14:37:34.178Z,25.62
2019-05-28T14:40:00.655Z,25.82
2019-05-28T14:42:27.123Z,25.73
2019-05-28T14:44:53.505Z,25.74
2019-05-28T14:47:19.875Z,25.79
2019-05-28T14:49:46.227Z,25.85
2019-05-28T14:52:12.593Z,25.86
2019-05-28T14:54:39.057Z,25.70
2019-05-28T14:57:05.368Z,25.89
2019-05-28T14:59:31.759Z,25.89
2019-05-28T15:01:58.151Z,25.85
2019-05-28T15:04:24.701Z,25.82
2019-05-28T15:06:51.100Z,25.70
2019-05-28T15:09:21.256Z,25.69
2019-05-28T15:11:44.051Z,25.82
2019-05-28T15:14:10.469Z,25.79
2019-05-28T15:16:40.173Z,25.80
2019-05-28T15:19:06.531Z,25.81
2019-05-28T15:21:33.018Z,25.81
2019-05-28T15:23:59.307Z,25.68
2019-05-28T15:26:25.657Z,25.71
2019-05-28T15:28:52.038Z,25.76
2019-05-28T15:31:18.397Z,25.70
2019-05-28T15:33:44.742Z,25.67
2019-05-28T15:36:11.074Z,25.68
2019-05-28T15:38:37.414Z,25.73
2019-05-28T15:41:03.832Z,25.72
2019-05-28T15:43:30.156Z,25.70
2019-05-28T15:45:56.539Z,25.70
2019-05-28T15:50:49.291Z,25.67
2019-05-28T15:53:15.605Z,25.57
2019-05-28T15:55:42.047Z,25.54
2019-05-28T15:58:12.443Z,25.64
2019-05-28T16:00:34.727Z,25.49
2019-05-28T16:03:01.100Z,25.63
2019-05-28T16:05:27.528Z,25.61
2019-05-28T16:07:53.936Z,25.55
2019-05-28T16:10:20.300Z,25.57
2019-05-28T16:12:46.653Z,25.57
2019-05-28T16:15:13.019Z,25.47
2019-05-28T16:17:39.347Z,25.49
2019-05-28T16:20:06.314Z,25.49
2019-05-28T16:22:32.607Z,25.54
2019-05-28T16:24:59.001Z,25.54
2019-05-28T16:27:25.349Z,25.47
2019-05-28T16:29:51.697Z,25.40
2019-05-28T16:32:18.027Z,25.38
2019-05-28T16:34:44.429Z,25.25
2019-05-28T16:37:10.778Z,25.30
2019-05-28T16:39:37.110Z,25.30
2019-05-28T16:42:03.464Z,25.33
2019-05-28T16:44:29.823Z,25.21
2019-05-28T16:47:14.816Z,25.19
2019-05-28T16:49:22.547Z,25.19
2019-05-28T16:51:48.982Z,25.25
2019-05-28T16:54:19.101Z,25.21
2019-05-28T16:56:41.538Z,25.21
2019-05-28T16:59:07.869Z,25.12
2019-05-28T17:01:34.265Z,25.22
2019-05-28T17:04:00.604Z,25.22
2019-05-28T17:06:27.057Z,25.16
2019-05-28T17:11:19.788Z,25.18
2019-05-28T17:13:48.087Z,25.25
2019-05-28T17:16:12.495Z,25.21
2019-05-28T17:18:38.831Z,25.21
2019-05-28T17:21:05.249Z,25.15
2019-05-28T17:23:31.594Z,25.15
2019-05-28T17:25:58.001Z,25.18
2019-05-28T17:28:24.392Z,25.27
2019-05-28T17:30:50.740Z,25.20
2019-05-28T17:33:17.070Z,25.20
2019-05-28T17:35:43.377Z,25.07
2019-05-28T17:38:09.707Z,24.89
2019-05-28T17:40:47.900Z,24.89
2019-05-28T17:43:02.422Z,25.02
2019-05-28T17:45:28.760Z,25.01
2019-05-28T17:47:55.183Z,24.98
2019-05-28T17:50:21.511Z,24.96
2019-05-28T17:52:51.367Z,24.91
2019-05-28T17:55:14.219Z,24.96
2019-05-28T17:57:40.543Z,24.96
2019-05-28T18:00:06.897Z,24.95
2019-05-28T18:02:33.293Z,24.93
2019-05-28T18:04:59.637Z,24.93
2019-05-28T18:07:25.999Z,24.90
2019-05-28T18:09:52.312Z,24.94
2019-05-28T18:12:18.660Z,24.89
2019-05-28T18:14:45.009Z,24.83
2019-05-28T18:17:11.336Z,24.83
2019-05-28T18:19:37.673Z,24.86
2019-05-28T18:22:04.025Z,24.89
2019-05-28T18:24:30.478Z,24.89
2019-05-28T18:26:56.767Z,24.78
2019-05-28T18:29:23.220Z,24.78
2019-05-28T18:31:51.835Z,24.82
2019-05-28T18:34:18.135Z,24.86
2019-05-28T18:36:44.496Z,24.81
2019-05-28T18:39:10.936Z,24.85
2019-05-28T18:41:43.660Z,24.85
2019-05-28T18:44:10.014Z,24.83
2019-05-28T18:46:36.366Z,24.85
2019-05-28T18:49:02.783Z,24.85
2019-05-28T18:51:31.376Z,24.83
2019-05-28T18:53:57.752Z,24.81
2019-05-28T18:56:24.048Z,24.81
2019-05-28T18:58:50.383Z,24.85
2019-05-28T19:01:16.734Z,24.85
2019-05-28T19:03:43.087Z,24.85
2019-05-28T19:06:09.444Z,24.78
2019-05-28T19:08:35.776Z,24.76
2019-05-28T19:11:02.216Z,24.75
2019-05-28T19:13:28.527Z,24.82
2019-05-28T19:15:54.858Z,24.85
2019-05-28T19:20:47.545Z,24.82
2019-05-28T19:23:13.923Z,24.73
2019-05-28T19:25:40.271Z,24.74
2019-05-28T19:28:06.582Z,24.74
2019-05-28T19:30:32.937Z,24.74
2019-05-28T19:32:59.266Z,24.78
2019-05-28T19:35:25.608Z,24.79
2019-05-28T19:37:51.965Z,24.81
2019-05-28T19:40:18.306Z,24.79
2019-05-28T19:42:44.706Z,24.79
2019-05-28T19:45:11.080Z,24.81
2019-05-28T19:47:37.425Z,24.75
2019-05-28T19:50:03.784Z,24.71
2019-05-28T19:52:30.112Z,24.73
2019-05-28T19:54:56.562Z,24.73
2019-05-28T19:57:22.979Z,24.72
2019-05-28T19:59:49.351Z,24.75
2019-05-28T20:02:15.655Z,24.76
2019-05-28T20:04:42.031Z,24.73
2019-05-28T20:07:08.382Z,24.77
2019-05-28T20:09:34.770Z,24.75
2019-05-28T20:12:12.177Z,24.81
2019-05-28T20:14:27.495Z,24.81
2019-05-28T20:16:53.824Z,24.80
2019-05-28T20:19:20.174Z,24.80
2019-05-28T20:21:49.599Z,24.77
2019-05-28T20:24:12.923Z,24.77
2019-05-28T20:26:39.383Z,24.76
2019-05-28T20:29:08.773Z,24.76
2019-05-28T20:31:32.044Z,24.77
2019-05-28T20:33:59.736Z,24.77
2019-05-28T20:36:24.919Z,24.75
2019-05-28T20:38:51.260Z,24.75
2019-05-28T20:41:17.650Z,24.76
2019-05-28T20:43:43.954Z,24.74
2019-05-28T20:46:10.663Z,24.74
2019-05-28T20:48:36.615Z,24.75
2019-05-28T20:51:08.889Z,24.74
2019-05-28T20:53:36.017Z,24.75
2019-05-28T20:55:56.261Z,24.75
2019-05-28T20:58:22.045Z,24.74
2019-05-28T21:00:49.477Z,24.73
2019-05-28T21:05:41.256Z,24.74
2019-05-28T21:08:07.593Z,24.71
2019-05-28T21:10:33.974Z,24.73
2019-05-28T21:13:00.330Z,24.71
2019-05-28T21:15:26.665Z,24.74
2019-05-28T21:17:53.181Z,24.74
2019-05-28T21:20:19.473Z,24.72
2019-05-28T21:22:45.868Z,24.70
2019-05-28T21:25:12.250Z,24.69
2019-05-28T21:27:38.574Z,24.71
2019-05-28T21:30:04.910Z,24.70
2019-05-28T21:32:31.286Z,24.72
2019-05-28T21:34:59.705Z,24.70
2019-05-28T21:37:23.992Z,24.68
2019-05-28T21:39:51.350Z,24.69
2019-05-28T21:42:16.682Z,24.67
2019-05-28T21:44:43.030Z,24.68
2019-05-28T21:47:09.392Z,24.68
2019-05-28T21:49:35.805Z,24.67
2019-05-28T21:52:03.909Z,24.65
2019-05-28T21:54:28.522Z,24.64
2019-05-28T21:56:57.112Z,24.62
2019-05-28T21:59:21.208Z,24.63
2019-05-28T22:04:13.889Z,24.59
2019-05-28T22:06:40.349Z,24.61
2019-05-28T22:09:08.050Z,24.57
2019-05-28T22:11:33.139Z,24.58
2019-05-28T22:14:00.123Z,24.59
2019-05-28T22:16:25.804Z,24.58
2019-05-28T22:18:52.304Z,24.59
2019-05-28T22:21:18.746Z,24.58
2019-05-28T22:23:45.100Z,24.55
2019-05-28T22:26:11.490Z,24.54
2019-05-28T22:28:37.820Z,24.52
2019-05-28T22:31:04.229Z,24.52
2019-05-28T22:33:30.553Z,24.50
2019-05-28T22:35:57.081Z,24.48
2019-05-28T22:38:23.298Z,24.50
2019-05-28T22:40:49.687Z,24.52
2019-05-28T22:43:30.450Z,24.51
2019-05-28T22:45:43.330Z,24.51
2019-05-28T22:48:15.568Z,24.49
2019-05-28T22:50:35.132Z,24.47
2019-05-28T22:53:01.840Z,24.45
2019-05-28T22:55:27.804Z,24.43
2019-05-28T22:57:54.160Z,24.42
2019-05-28T23:00:20.547Z,24.43
2019-05-28T23:02:46.951Z,24.43
2019-05-28T23:05:13.293Z,24.40
2019-05-28T23:07:39.710Z,24.42
2019-05-28T23:10:06.030Z,24.38
2019-05-28T23:12:32.433Z,24.35
2019-05-28T23:14:59.746Z,24.37
2019-05-28T23:17:25.083Z,24.36
2019-05-28T23:19:51.442Z,24.37
2019-05-28T23:24:44.267Z,24.31
2019-05-28T23:27:11.621Z,24.31
2019-05-28T23:29:36.970Z,24.29
2019-05-28T23:32:04.003Z,24.30
2019-05-28T23:34:29.680Z,24.27
2019-05-28T23:36:56.041Z,24.29
2019-05-28T23:39:22.388Z,24.25
2019-05-28T23:41:48.723Z,24.27
2019-05-28T23:44:15.051Z,24.23
2019-05-28T23:46:41.445Z,24.24
2019-05-28T23:49:08.128Z,24.22
2019-05-28T23:51:34.140Z,24.25
2019-05-28T23:54:00.473Z,24.22
2019-05-28T23:56:26.830Z,24.20
2019-05-28T23:58:53.228Z,24.20
